Time;durP1;ratioP1;P1;durP2;ratioP2;P2;SDS_P1;SDS_P2;PMS_P1;PMS_P2;Temp;Humidity;BMP_temperature;BMP_pressure;BME280_temperature;BME280_humidity;BME280_pressure;Samples;Min_cycle;Max_cycle;Signal;HPM_P1;HPM_P2
2022/06/07 00:02:25;;;;;;;0.80;0.70;;;26.20;51.70;;;;;;5054427;28;20044;-63
2022/06/07 00:04:53;;;;;;;0.70;0.70;;;26.20;51.70;;;;;;5055666;28;20502;-61
2022/06/07 00:07:20;;;;;;;0.85;0.70;;;26.20;51.70;;;;;;5053793;28;20118;-64
2022/06/07 00:09:46;;;;;;;1.17;0.80;;;26.10;51.70;;;;;;5053692;28;20036;-60
2022/06/07 00:12:12;;;;;;;0.85;0.77;;;26.10;51.70;;;;;;5054941;28;20035;-62
2022/06/07 00:14:37;;;;;;;0.90;0.80;;;26.20;51.70;;;;;;5056244;28;20036;-64
2022/06/07 00:17:07;;;;;;;1.00;0.80;;;26.20;51.80;;;;;;5054681;28;20461;-62
2022/06/07 00:19:34;;;;;;;0.70;0.70;;;26.20;51.80;;;;;;5056014;28;20089;-61
2022/06/07 00:22:00;;;;;;;0.75;0.70;;;26.10;51.70;;;;;;5054616;28;20036;-64
2022/06/07 00:24:26;;;;;;;0.75;0.70;;;26.10;51.70;;;;;;5054854;28;20048;-63
2022/06/07 00:26:52;;;;;;;0.82;0.70;;;26.10;51.70;;;;;;5055406;28;20118;-61
2022/06/07 00:29:20;;;;;;;0.82;0.65;;;26.10;51.70;;;;;;5050890;28;20181;-62
2022/06/07 00:31:46;;;;;;;0.70;0.70;;;26.10;51.80;;;;;;5054861;28;20044;-62
2022/06/07 00:34:12;;;;;;;0.82;0.70;;;26.10;51.70;;;;;;5055250;28;20028;-62
2022/06/07 00:36:38;;;;;;;0.80;0.70;;;26.10;51.80;;;;;;5053165;28;20787;-59
2022/06/07 00:39:05;;;;;;;0.85;0.80;;;26.10;51.70;;;;;;5054359;28;20086;-63
2022/06/07 00:41:30;;;;;;;0.60;0.60;;;26.10;51.70;;;;;;5058706;28;20115;-63
2022/06/07 00:44:22;;;;;;;0.70;0.70;;;26.10;51.70;;;;;;5059315;28;20111;-63
2022/06/07 00:47:11;;;;;;;0.80;0.70;;;26.10;51.70;;;;;;5059545;28;20060;-61
2022/06/07 00:50:08;;;;;;;0.80;0.70;;;26.10;51.70;;;;;;5058771;28;20210;-62
2022/06/07 00:52:35;;;;;;;0.60;0.60;;;26.10;51.70;;;;;;5056089;28;20517;-63
2022/06/07 00:55:03;;;;;;;0.52;0.52;;;26.10;51.70;;;;;;5056810;28;20115;-61
2022/06/07 00:57:29;;;;;;;0.60;0.60;;;26.10;51.70;;;;;;5058366;28;20024;-63
2022/06/07 00:59:55;;;;;;;0.70;0.70;;;26.10;51.70;;;;;;5057850;28;20510;-60
2022/06/07 01:02:22;;;;;;;1.00;0.80;;;26.10;51.80;;;;;;5058385;28;20127;-63
2022/06/07 01:04:48;;;;;;;0.70;0.70;;;26.10;51.80;;;;;;5060302;28;20028;-58
2022/06/07 01:13:02;;;;;;;0.77;0.70;;;26.10;52.00;;;;;;4980176;28;20037;-64
2022/06/07 01:15:27;;;;;;;0.65;0.65;;;26.00;52.00;;;;;;4978496;28;20396;-60
2022/06/07 01:17:53;;;;;;;0.70;0.70;;;26.00;52.00;;;;;;5016289;28;20037;-60
2022/06/07 01:20:19;;;;;;;0.70;0.70;;;26.10;52.10;;;;;;5058280;28;20545;-61
2022/06/07 01:22:44;;;;;;;0.70;0.70;;;26.00;52.00;;;;;;5056881;28;20024;-62
2022/06/07 01:25:10;;;;;;;0.60;0.60;;;26.00;52.00;;;;;;5056040;28;20032;-61
2022/06/07 01:27:36;;;;;;;0.60;0.60;;;26.00;52.00;;;;;;5057812;28;20027;-62
2022/06/07 01:30:04;;;;;;;0.75;0.70;;;26.10;52.10;;;;;;5060342;28;20040;-63
2022/06/07 01:32:29;;;;;;;0.63;0.60;;;26.00;52.00;;;;;;5058679;28;20136;-59
2022/06/07 01:34:55;;;;;;;0.90;0.70;;;26.00;52.10;;;;;;5059105;28;20062;-63
2022/06/07 01:37:21;;;;;;;0.70;0.60;;;26.00;52.10;;;;;;5055025;28;20024;-62
2022/06/07 01:42:31;;;;;;;0.50;0.50;;;26.00;52.10;;;;;;5059750;28;20046;-61
2022/06/07 01:44:57;;;;;;;0.60;0.60;;;26.00;52.10;;;;;;5057947;28;20028;-59
2022/06/07 01:47:29;;;;;;;0.70;0.70;;;26.00;52.10;;;;;;5056448;28;20101;-61
2022/06/07 01:49:55;;;;;;;1.27;0.70;;;26.00;52.10;;;;;;5061450;28;20556;-63
2022/06/07 01:52:26;;;;;;;0.70;0.65;;;26.00;52.10;;;;;;5059345;28;20032;-64
2022/06/07 01:54:51;;;;;;;0.70;0.60;;;26.00;52.10;;;;;;5058395;28;20127;-63
2022/06/07 01:57:18;;;;;;;0.82;0.70;;;26.00;52.20;;;;;;5059873;28;20139;-63
2022/06/07 01:59:45;;;;;;;0.80;0.60;;;26.00;52.10;;;;;;5059180;28;20724;-63
2022/06/07 02:02:11;;;;;;;0.65;0.60;;;26.00;52.20;;;;;;5060697;28;20076;-62
2022/06/07 02:04:38;;;;;;;0.60;0.60;;;26.00;52.20;;;;;;5058583;28;20044;-60
2022/06/07 02:07:05;;;;;;;0.88;0.70;;;26.00;52.20;;;;;;5057826;28;20097;-61
2022/06/07 02:09:31;;;;;;;0.70;0.70;;;25.90;52.10;;;;;;5056755;28;20044;-63
2022/06/07 02:11:57;;;;;;;0.68;0.68;;;26.00;52.20;;;;;;5059893;28;20595;-62
2022/06/07 02:14:23;;;;;;;0.60;0.60;;;26.00;52.20;;;;;;5059790;28;20110;-64
2022/06/07 02:16:49;;;;;;;0.57;0.55;;;25.90;52.10;;;;;;5058490;28;20058;-63
2022/06/07 02:19:14;;;;;;;0.70;0.70;;;25.90;52.10;;;;;;5058736;28;20831;-63
2022/06/07 02:21:41;;;;;;;0.90;0.70;;;25.90;52.10;;;;;;5059863;28;20047;-59
2022/06/07 02:24:08;;;;;;;0.50;0.50;;;25.90;52.10;;;;;;5057299;28;20032;-63
2022/06/07 02:26:38;;;;;;;0.70;0.70;;;25.90;52.20;;;;;;5058229;28;20205;-63
2022/06/07 02:29:35;;;;;;;0.73;0.65;;;25.90;52.10;;;;;;5058475;28;20041;-63
2022/06/07 02:32:28;;;;;;;0.82;0.70;;;25.90;52.10;;;;;;5051998;28;20033;-64
2022/06/07 02:34:56;;;;;;;1.05;0.73;;;25.90;52.10;;;;;;5059406;28;20357;-63
2022/06/07 02:37:22;;;;;;;0.70;0.60;;;25.90;52.10;;;;;;5057378;28;20036;-62
2022/06/07 02:39:49;;;;;;;0.68;0.60;;;25.90;52.10;;;;;;5058177;28;20139;-58
2022/06/07 02:42:16;;;;;;;0.60;0.60;;;25.90;52.10;;;;;;5057980;28;20063;-63
2022/06/07 02:44:42;;;;;;;0.70;0.70;;;25.90;52.10;;;;;;5058056;28;20044;-62
2022/06/07 02:47:08;;;;;;;0.60;0.60;;;25.90;52.10;;;;;;5057527;28;20032;-64
2022/06/07 02:49:34;;;;;;;0.60;0.60;;;25.90;52.10;;;;;;5057847;28;20037;-59
2022/06/07 02:51:59;;;;;;;0.80;0.70;;;25.90;52.10;;;;;;5056475;28;20028;-63
2022/06/07 02:54:25;;;;;;;0.70;0.70;;;25.90;52.10;;;;;;5057054;28;20106;-62
2022/06/07 02:56:51;;;;;;;0.70;0.65;;;25.90;52.10;;;;;;5057827;28;20122;-60
2022/06/07 02:59:16;;;;;;;0.60;0.60;;;25.80;52.00;;;;;;5057656;28;20124;-63
2022/06/07 03:01:42;;;;;;;0.80;0.80;;;25.90;52.20;;;;;;5057588;28;20083;-61
2022/06/07 03:04:08;;;;;;;0.80;0.80;;;25.90;52.20;;;;;;5058123;28;20540;-61
2022/06/07 03:06:33;;;;;;;0.60;0.60;;;25.90;52.10;;;;;;5056947;28;20126;-60
2022/06/07 03:08:59;;;;;;;0.50;0.50;;;25.80;52.10;;;;;;5057177;28;20028;-59
2022/06/07 03:11:24;;;;;;;0.73;0.70;;;25.80;52.00;;;;;;5056577;28;20111;-63
2022/06/07 03:13:50;;;;;;;0.60;0.60;;;25.80;52.10;;;;;;5058032;28;20024;-63
2022/06/07 03:16:15;;;;;;;0.57;0.57;;;25.80;52.10;;;;;;5059081;28;20565;-60
2022/06/07 03:18:41;;;;;;;0.90;0.60;;;25.80;52.00;;;;;;5058003;28;20107;-62
2022/06/07 03:21:07;;;;;;;0.52;0.50;;;25.80;52.10;;;;;;5056662;28;20168;-63
2022/06/07 03:23:33;;;;;;;0.70;0.70;;;25.80;52.10;;;;;;5054394;28;20071;-61
2022/06/07 03:26:07;;;;;;;0.70;0.70;;;25.80;52.10;;;;;;5057903;28;20536;-63
2022/06/07 03:28:33;;;;;;;0.68;0.60;;;25.80;52.10;;;;;;5057432;28;20036;-62
2022/06/07 03:31:04;;;;;;;0.60;0.60;;;25.80;52.10;;;;;;5054699;28;20058;-63
2022/06/07 03:33:29;;;;;;;0.82;0.70;;;25.80;52.10;;;;;;5057163;28;20028;-63
2022/06/07 03:35:55;;;;;;;0.80;0.70;;;25.80;52.10;;;;;;5057405;28;20448;-61
2022/06/07 03:38:20;;;;;;;0.60;0.60;;;25.80;52.10;;;;;;5056829;28;20043;-64
2022/06/07 03:40:46;;;;;;;0.60;0.60;;;25.80;52.10;;;;;;5057423;28;20121;-64
2022/06/07 03:43:12;;;;;;;0.90;0.70;;;25.80;52.10;;;;;;5057221;28;20048;-61
2022/06/07 03:45:39;;;;;;;0.85;0.70;;;25.70;52.00;;;;;;5057588;28;20115;-64
2022/06/07 03:48:05;;;;;;;0.50;0.50;;;25.80;52.10;;;;;;5057379;28;20039;-63
2022/06/07 03:50:31;;;;;;;0.60;0.60;;;25.70;52.00;;;;;;5056828;28;20074;-62
2022/06/07 03:52:56;;;;;;;0.60;0.60;;;25.70;52.00;;;;;;5036473;28;20068;-62
2022/06/07 03:55:22;;;;;;;0.68;0.57;;;25.70;52.00;;;;;;5054740;28;20035;-63
2022/06/07 03:57:48;;;;;;;0.70;0.68;;;25.70;52.00;;;;;;5055546;28;20094;-61
2022/06/07 04:00:14;;;;;;;0.70;0.70;;;25.70;52.00;;;;;;5054353;28;20047;-62
2022/06/07 04:02:39;;;;;;;0.60;0.60;;;25.70;52.10;;;;;;5056742;28;20567;-63
2022/06/07 04:05:05;;;;;;;0.70;0.70;;;25.70;52.00;;;;;;5057232;28;20035;-60
2022/06/07 04:10:15;;;;;;;0.60;0.60;;;25.70;52.10;;;;;;5056762;28;20044;-59
2022/06/07 04:12:41;;;;;;;0.70;0.60;;;25.70;52.10;;;;;;5055778;28;20055;-64
2022/06/07 04:15:07;;;;;;;0.70;0.63;;;25.70;52.00;;;;;;5055336;28;20986;-59
2022/06/07 04:17:32;;;;;;;0.80;0.77;;;25.70;52.10;;;;;;5055430;28;21170;-63
2022/06/07 04:19:58;;;;;;;0.80;0.80;;;25.70;52.10;;;;;;5056934;28;20123;-61
2022/06/07 04:22:24;;;;;;;0.60;0.60;;;25.70;52.10;;;;;;5056563;28;20161;-60
2022/06/07 04:24:50;;;;;;;0.70;0.70;;;25.70;52.00;;;;;;5055111;28;20476;-63
2022/06/07 04:27:16;;;;;;;0.60;0.60;;;25.70;52.00;;;;;;5055759;28;20020;-61
2022/06/07 04:29:41;;;;;;;0.63;0.63;;;25.70;52.00;;;;;;5055287;28;20472;-61
2022/06/07 04:32:07;;;;;;;0.50;0.50;;;25.70;52.00;;;;;;5054187;28;20075;-63
2022/06/07 04:34:33;;;;;;;0.60;0.60;;;25.70;52.00;;;;;;5056721;28;20044;-64
2022/06/07 04:36:58;;;;;;;0.77;0.60;;;25.70;52.00;;;;;;5055364;28;20028;-62
2022/06/07 04:39:24;;;;;;;0.60;0.60;;;25.70;52.10;;;;;;5053795;28;20028;-63
2022/06/07 04:41:49;;;;;;;0.70;0.60;;;25.70;52.00;;;;;;5057027;28;20440;-63
2022/06/07 04:44:15;;;;;;;0.90;0.70;;;25.60;52.00;;;;;;5054288;28;20078;-60
2022/06/07 04:46:41;;;;;;;1.00;0.60;;;25.70;52.00;;;;;;5054626;28;20439;-62
2022/06/07 04:49:07;;;;;;;0.57;0.57;;;25.70;52.10;;;;;;5055058;28;20036;-64
2022/06/07 04:51:34;;;;;;;0.75;0.70;;;25.70;52.00;;;;;;5053398;28;20058;-63
2022/06/07 04:54:01;;;;;;;0.65;0.60;;;25.60;52.00;;;;;;5052890;28;20079;-58
2022/06/07 04:56:30;;;;;;;0.63;0.63;;;25.60;52.00;;;;;;5044935;28;20122;-63
2022/06/07 04:59:00;;;;;;;0.82;0.60;;;25.60;52.00;;;;;;5047474;28;20036;-64
2022/06/07 05:01:29;;;;;;;0.60;0.60;;;25.60;52.00;;;;;;5053454;28;20041;-62
2022/06/07 05:03:55;;;;;;;0.60;0.60;;;25.60;52.00;;;;;;5052765;28;20074;-62
2022/06/07 05:06:22;;;;;;;0.60;0.60;;;25.60;52.00;;;;;;5055861;28;20048;-62
2022/06/07 05:08:48;;;;;;;0.60;0.60;;;25.60;52.00;;;;;;5053345;28;20387;-63
2022/06/07 05:11:14;;;;;;;0.63;0.63;;;25.60;52.00;;;;;;5055825;28;20028;-62
2022/06/07 05:13:40;;;;;;;0.50;0.50;;;25.60;52.00;;;;;;5049476;28;20530;-62
2022/06/07 05:16:06;;;;;;;0.60;0.60;;;25.60;52.00;;;;;;5052756;28;20383;-62
2022/06/07 05:18:32;;;;;;;0.60;0.60;;;25.60;52.00;;;;;;5053930;28;20032;-64
2022/06/07 05:20:58;;;;;;;0.50;0.50;;;25.60;52.00;;;;;;5054218;28;20090;-63
2022/06/07 05:23:23;;;;;;;0.70;0.70;;;25.60;52.00;;;;;;5052541;28;20483;-61
2022/06/07 05:25:55;;;;;;;0.75;0.60;;;25.60;52.00;;;;;;5055341;28;20480;-61
2022/06/07 05:28:21;;;;;;;0.60;0.60;;;25.60;52.00;;;;;;5059230;28;20040;-62
2022/06/07 05:30:47;;;;;;;0.60;0.60;;;25.60;52.00;;;;;;5056929;28;20136;-59
2022/06/07 05:33:12;;;;;;;0.57;0.57;;;25.60;52.00;;;;;;5059324;28;20131;-63
2022/06/07 05:35:38;;;;;;;0.50;0.50;;;25.50;51.90;;;;;;5057875;28;20036;-62
2022/06/07 05:38:03;;;;;;;0.50;0.50;;;25.50;51.90;;;;;;5056137;28;20032;-64
2022/06/07 05:40:29;;;;;;;0.60;0.60;;;25.50;51.90;;;;;;5055275;28;20088;-59
2022/06/07 05:42:55;;;;;;;0.80;0.60;;;25.60;52.00;;;;;;5059890;28;20025;-61
2022/06/07 05:45:20;;;;;;;0.57;0.57;;;25.50;51.90;;;;;;5057717;28;20035;-62
2022/06/07 05:47:46;;;;;;;0.98;0.70;;;25.60;52.00;;;;;;5056263;28;20033;-59
2022/06/07 05:50:12;;;;;;;0.57;0.57;;;25.50;51.90;;;;;;5057799;28;20024;-62
2022/06/07 05:52:40;;;;;;;0.50;0.50;;;25.50;51.90;;;;;;5056353;28;20024;-60
2022/06/07 05:55:07;;;;;;;0.60;0.60;;;25.50;51.90;;;;;;5058603;28;20032;-63
2022/06/07 05:57:34;;;;;;;1.42;0.70;;;25.50;52.00;;;;;;5057716;28;20170;-61
2022/06/07 06:00:00;;;;;;;0.55;0.55;;;25.50;51.90;;;;;;5058414;28;20043;-61
2022/06/07 06:02:26;;;;;;;0.52;0.52;;;25.50;51.90;;;;;;5056720;28;20532;-61
2022/06/07 06:04:51;;;;;;;0.70;0.70;;;25.50;51.90;;;;;;5059541;28;20039;-62
2022/06/07 06:07:18;;;;;;;0.50;0.50;;;25.50;51.90;;;;;;5056896;28;20039;-64
2022/06/07 06:12:29;;;;;;;0.60;0.60;;;25.50;51.90;;;;;;5056229;28;20075;-64
2022/06/07 06:14:55;;;;;;;0.70;0.70;;;25.50;52.40;;;;;;5056397;28;20052;-60
2022/06/07 06:17:21;;;;;;;0.70;0.70;;;25.50;51.90;;;;;;5057037;28;20769;-62
2022/06/07 06:19:47;;;;;;;0.85;0.60;;;25.50;51.90;;;;;;5058221;28;20024;-63
2022/06/07 06:22:13;;;;;;;0.60;0.60;;;25.50;51.90;;;;;;5057527;28;20032;-61
2022/06/07 06:24:39;;;;;;;0.70;0.70;;;25.50;51.90;;;;;;5058982;28;20040;-64
2022/06/07 06:27:05;;;;;;;0.60;0.60;;;25.50;51.90;;;;;;5056762;28;20033;-63
2022/06/07 06:29:30;;;;;;;1.00;0.60;;;25.40;51.80;;;;;;5059607;28;20037;-64
2022/06/07 06:31:56;;;;;;;1.65;0.70;;;25.50;51.90;;;;;;5056295;28;20091;-60
2022/06/07 06:34:22;;;;;;;0.60;0.60;;;25.50;51.90;;;;;;5057668;28;20040;-62
2022/06/07 06:36:47;;;;;;;0.77;0.70;;;25.50;51.90;;;;;;5056135;28;20121;-62
2022/06/07 06:39:14;;;;;;;0.60;0.60;;;25.50;51.90;;;;;;5056517;28;20031;-62
2022/06/07 06:41:43;;;;;;;0.77;0.77;;;25.50;51.90;;;;;;5058122;28;20029;-63
2022/06/07 06:44:10;;;;;;;0.60;0.60;;;25.40;51.80;;;;;;5057917;28;20542;-63
2022/06/07 06:46:39;;;;;;;0.50;0.50;;;25.50;51.90;;;;;;5057754;28;20032;-62
2022/06/07 06:49:06;;;;;;;0.82;0.60;;;25.40;51.80;;;;;;5058153;28;20021;-65
2022/06/07 06:51:32;;;;;;;0.60;0.60;;;25.40;51.80;;;;;;5057002;28;20037;-60
2022/06/07 06:54:02;;;;;;;1.15;0.70;;;25.40;51.80;;;;;;5057157;28;20123;-64
2022/06/07 06:56:29;;;;;;;1.45;0.70;;;25.40;51.80;;;;;;5056616;28;20028;-64
2022/06/07 06:58:55;;;;;;;0.70;0.70;;;25.50;51.80;;;;;;5056955;28;20024;-61
2022/06/07 07:01:31;;;;;;;0.65;0.65;;;25.40;51.80;;;;;;5057188;28;20090;-62
2022/06/07 07:04:02;;;;;;;0.60;0.60;;;25.40;51.80;;;;;;5058216;28;20029;-62
2022/06/07 07:06:28;;;;;;;0.60;0.60;;;25.40;51.80;;;;;;5056343;28;20029;-60
2022/06/07 07:08:55;;;;;;;0.60;0.60;;;25.40;51.80;;;;;;5054361;28;20023;-63
2022/06/07 07:11:27;;;;;;;0.85;0.70;;;25.40;51.80;;;;;;5056446;28;20056;-64
2022/06/07 07:13:54;;;;;;;0.50;0.50;;;25.40;51.80;;;;;;5058131;28;20112;-64
2022/06/07 07:16:31;;;;;;;0.73;0.60;;;25.40;51.70;;;;;;5055706;28;20032;-63
2022/06/07 07:18:58;;;;;;;0.95;0.80;;;25.40;51.80;;;;;;5056140;28;20021;-63
2022/06/07 07:21:37;;;;;;;0.60;0.60;;;25.40;51.80;;;;;;5056162;28;20176;-64
2022/06/07 07:24:05;;;;;;;0.43;0.43;;;25.40;51.80;;;;;;5057963;28;20036;-63
2022/06/07 07:26:32;;;;;;;0.80;0.60;;;25.40;51.80;;;;;;5055030;28;20032;-63
2022/06/07 07:28:59;;;;;;;0.60;0.60;;;25.40;51.80;;;;;;5055961;28;20056;-62
2022/06/07 07:31:30;;;;;;;0.60;0.60;;;25.40;51.80;;;;;;5056337;28;20044;-63
2022/06/07 07:33:57;;;;;;;0.70;0.60;;;25.40;51.80;;;;;;5056518;28;20031;-62
2022/06/07 07:36:23;;;;;;;1.05;0.55;;;25.40;51.80;;;;;;5057461;28;20042;-63
2022/06/07 07:38:49;;;;;;;0.60;0.60;;;25.40;51.80;;;;;;5057019;28;20033;-63
2022/06/07 07:41:17;;;;;;;1.67;0.70;;;25.40;51.80;;;;;;5059479;28;20037;-63
2022/06/07 07:43:43;;;;;;;0.50;0.50;;;25.40;51.80;;;;;;5055976;28;20028;-59
2022/06/07 07:46:08;;;;;;;0.70;0.60;;;25.40;51.80;;;;;;5056820;28;20043;-61
2022/06/07 07:48:34;;;;;;;0.70;0.60;;;25.40;51.80;;;;;;5056171;28;20032;-61
2022/06/07 07:51:08;;;;;;;1.25;0.70;;;25.40;51.80;;;;;;5056347;28;20101;-62
2022/06/07 07:53:34;;;;;;;0.50;0.50;;;25.40;51.70;;;;;;5054120;28;20773;-62
2022/06/07 07:56:00;;;;;;;0.70;0.70;;;25.40;51.70;;;;;;5056601;28;20033;-60
2022/06/07 07:58:25;;;;;;;0.55;0.55;;;25.40;51.70;;;;;;5056554;28;20156;-60
2022/06/07 08:00:51;;;;;;;0.60;0.60;;;25.40;51.70;;;;;;5056978;28;20135;-63
2022/06/07 08:03:19;;;;;;;0.65;0.55;;;25.40;51.70;;;;;;5053886;28;20036;-62
2022/06/07 08:05:45;;;;;;;0.80;0.70;;;25.30;51.70;;;;;;5056546;28;20093;-63
2022/06/07 08:08:11;;;;;;;0.50;0.50;;;25.40;52.20;;;;;;5054113;28;20029;-61
2022/06/07 08:10:38;;;;;;;0.60;0.60;;;25.40;51.70;;;;;;5055562;28;20047;-62
2022/06/07 08:13:04;;;;;;;0.70;0.70;;;25.30;51.60;;;;;;5056723;28;20028;-63
2022/06/07 08:15:32;;;;;;;0.50;0.50;;;25.30;51.70;;;;;;5054472;28;20115;-63
2022/06/07 08:18:01;;;;;;;0.82;0.60;;;25.30;51.70;;;;;;5055943;28;20021;-63
2022/06/07 08:20:29;;;;;;;0.50;0.50;;;25.30;51.70;;;;;;5055857;28;20067;-59
2022/06/07 08:22:55;;;;;;;1.15;0.60;;;25.30;51.70;;;;;;5053325;28;20555;-61
2022/06/07 08:25:21;;;;;;;1.02;0.70;;;25.30;51.70;;;;;;5051989;28;20048;-61
2022/06/07 08:27:47;;;;;;;1.08;0.55;;;25.30;51.70;;;;;;5049761;28;20756;-62
2022/06/07 08:30:14;;;;;;;0.68;0.50;;;25.30;51.60;;;;;;5055162;28;20036;-63
2022/06/07 08:32:40;;;;;;;0.60;0.60;;;25.30;51.60;;;;;;5057096;28;20492;-63
2022/06/07 08:37:50;;;;;;;0.50;0.50;;;25.30;52.10;;;;;;5056014;28;20071;-63
2022/06/07 08:40:27;;;;;;;0.52;0.52;;;25.30;51.60;;;;;;5056309;28;20135;-63
2022/06/07 08:43:00;;;;;;;0.50;0.50;;;25.30;51.60;;;;;;5035212;28;20066;-59
2022/06/07 08:45:33;;;;;;;0.88;0.60;;;25.30;51.60;;;;;;5054273;28;20143;-63
2022/06/07 08:48:03;;;;;;;0.60;0.60;;;25.30;51.70;;;;;;5054323;28;20425;-60
2022/06/07 08:50:37;;;;;;;0.60;0.60;;;25.30;51.60;;;;;;5053710;28;20104;-59
2022/06/07 08:53:11;;;;;;;0.50;0.50;;;25.30;51.60;;;;;;5053413;28;20077;-63
2022/06/07 08:55:53;;;;;;;0.60;0.60;;;25.30;51.60;;;;;;5053977;28;20028;-62
2022/06/07 08:58:22;;;;;;;0.50;0.50;;;25.30;51.60;;;;;;5055195;28;20056;-60
2022/06/07 09:00:52;;;;;;;0.60;0.60;;;25.30;51.60;;;;;;5056115;28;20061;-62
2022/06/07 09:03:35;;;;;;;0.40;0.40;;;25.30;51.50;;;;;;5060919;28;20055;-59
2022/06/07 09:06:03;;;;;;;0.50;0.50;;;25.30;51.50;;;;;;5057924;28;20134;-60
2022/06/07 09:08:51;;;;;;;0.65;0.55;;;25.30;51.50;;;;;;5057759;28;20121;-61
2022/06/07 09:14:52;;;;;;;0.50;0.50;;;25.30;51.50;;;;;;5059168;28;20035;-64
2022/06/07 09:17:30;;;;;;;0.50;0.50;;;25.30;51.50;;;;;;5059230;28;20391;-61
2022/06/07 09:19:57;;;;;;;0.50;0.50;;;25.30;51.50;;;;;;5059163;28;20024;-65
2022/06/07 09:22:29;;;;;;;0.60;0.60;;;25.30;51.50;;;;;;5056540;28;20059;-62
2022/06/07 09:25:00;;;;;;;0.57;0.50;;;25.30;51.50;;;;;;5058434;28;20093;-62
2022/06/07 09:27:31;;;;;;;0.60;0.60;;;25.30;51.50;;;;;;5059878;28;20027;-62
2022/06/07 09:30:23;;;;;;;0.60;0.60;;;25.30;51.50;;;;;;5059169;28;20040;-64
2022/06/07 09:32:49;;;;;;;0.52;0.52;;;25.20;51.40;;;;;;5047027;28;20044;-63
2022/06/07 09:35:20;;;;;;;0.80;0.80;;;25.30;51.50;;;;;;5056032;28;20039;-64
2022/06/07 09:38:00;;;;;;;0.52;0.50;;;25.30;51.50;;;;;;5056194;28;20484;-65
2022/06/07 09:40:37;;;;;;;0.50;0.50;;;25.30;51.40;;;;;;5059400;28;20085;-62
2022/06/07 09:43:11;;;;;;;0.50;0.50;;;25.30;51.40;;;;;;5060653;28;20024;-63
2022/06/07 09:45:56;;;;;;;0.90;0.52;;;25.30;51.50;;;;;;5058629;28;20078;-62
2022/06/07 09:48:43;;;;;;;0.63;0.60;;;25.30;51.40;;;;;;5058648;28;22042;-63
2022/06/07 09:51:23;;;;;;;0.50;0.50;;;25.30;51.40;;;;;;5057225;28;20029;-65
2022/06/07 09:53:57;;;;;;;;;;;25.30;51.40;;;;;;5057991;28;20043;-61
2022/06/07 09:57:11;;;;;;;0.50;0.50;;;25.30;51.40;;;;;;5056381;28;19973;-63
2022/06/07 09:59:49;;;;;;;0.93;0.70;;;25.30;51.40;;;;;;5029438;28;20207;-65
2022/06/07 10:02:43;;;;;;;0.50;0.50;;;25.30;51.40;;;;;;5055003;28;20036;-61
2022/06/07 10:05:39;;;;;;;0.68;0.55;;;25.20;51.40;;;;;;5055689;28;20066;-62
2022/06/07 10:08:26;;;;;;;0.40;0.40;;;25.20;51.40;;;;;;5045373;28;20372;-62
2022/06/07 10:11:11;;;;;;;0.50;0.50;;;25.20;51.30;;;;;;5055957;28;20333;-65
2022/06/07 10:13:58;;;;;;;0.50;0.50;;;25.20;51.30;;;;;;5056375;28;20039;-61
2022/06/07 10:16:56;;;;;;;0.60;0.60;;;25.20;51.40;;;;;;5058045;28;20040;-62
2022/06/07 10:19:57;;;;;;;0.57;0.50;;;25.20;51.30;;;;;;5059587;28;20040;-63
2022/06/07 10:22:49;;;;;;;0.50;0.50;;;25.20;51.30;;;;;;5039602;28;20413;-64
2022/06/07 10:25:21;;;;;;;0.55;0.55;;;25.20;51.30;;;;;;5057593;28;20044;-62
2022/06/07 10:28:15;;;;;;;0.80;0.50;;;25.20;51.30;;;;;;5058074;28;20060;-64
2022/06/07 10:31:06;;;;;;;0.50;0.50;;;25.20;51.30;;;;;;5057779;28;20731;-61
2022/06/07 10:33:54;;;;;;;0.50;0.50;;;25.20;51.30;;;;;;5058551;28;20557;-62
2022/06/07 10:36:41;;;;;;;0.50;0.50;;;25.20;51.30;;;;;;5059346;28;20124;-60
2022/06/07 10:39:26;;;;;;;0.63;0.60;;;25.20;51.30;;;;;;5057153;28;20496;-63
2022/06/07 10:42:15;;;;;;;0.77;0.60;;;25.20;51.30;;;;;;5057198;28;20078;-60
2022/06/07 10:45:04;;;;;;;0.57;0.57;;;25.20;51.30;;;;;;5055357;28;20032;-59
2022/06/07 10:47:56;;;;;;;0.55;0.55;;;25.20;51.40;;;;;;5055391;28;20029;-63
2022/06/07 10:50:31;;;;;;;0.60;0.60;;;25.20;51.30;;;;;;5056236;28;20043;-61
2022/06/07 10:53:18;;;;;;;0.50;0.50;;;25.20;51.30;;;;;;5056953;28;20024;-62
2022/06/07 10:55:50;;;;;;;0.50;0.50;;;25.30;51.30;;;;;;5056887;28;20055;-62
2022/06/07 10:58:29;;;;;;;0.50;0.50;;;25.20;51.20;;;;;;5055186;28;20112;-62
2022/06/07 11:01:16;;;;;;;0.60;0.60;;;25.20;51.20;;;;;;5057840;28;20435;-61
2022/06/07 11:03:59;;;;;;;0.90;0.68;;;25.20;51.30;;;;;;5058206;28;20441;-60
2022/06/07 11:09:35;;;;;;;0.85;0.60;;;25.20;51.30;;;;;;5058214;28;20117;-60
2022/06/07 11:12:08;;;;;;;0.63;0.52;;;25.20;51.30;;;;;;5058265;28;20065;-59
2022/06/07 11:14:45;;;;;;;0.60;0.60;;;25.20;51.30;;;;;;5056721;28;20127;-59
2022/06/07 11:17:32;;;;;;;0.85;0.60;;;25.20;51.20;;;;;;5057337;28;20107;-61
2022/06/07 11:20:14;;;;;;;0.65;0.50;;;25.20;51.20;;;;;;5055972;28;20024;-63
2022/06/07 11:22:53;;;;;;;0.60;0.60;;;25.20;51.20;;;;;;5054855;28;20190;-61
2022/06/07 11:25:33;;;;;;;0.82;0.60;;;25.20;51.30;;;;;;5054849;28;20666;-62
2022/06/07 11:28:25;;;;;;;0.60;0.55;;;25.20;51.30;;;;;;5055914;28;20495;-61
2022/06/07 11:30:54;;;;;;;0.63;0.55;;;25.20;51.30;;;;;;5043341;28;20110;-63
2022/06/07 11:33:42;;;;;;;1.05;0.60;;;25.20;51.30;;;;;;5056646;28;20032;-62
2022/06/07 11:36:20;;;;;;;0.55;0.52;;;25.20;51.30;;;;;;5056792;28;20025;-60
2022/06/07 11:38:57;;;;;;;0.60;0.50;;;25.20;51.30;;;;;;5052957;28;20138;-62
2022/06/07 11:41:37;;;;;;;0.95;0.60;;;25.20;51.40;;;;;;5055497;28;20473;-62
2022/06/07 11:44:32;;;;;;;0.50;0.50;;;25.20;51.50;;;;;;5056900;28;20024;-60
2022/06/07 11:47:23;;;;;;;0.50;0.50;;;25.20;51.50;;;;;;5056703;28;20035;-62
2022/06/07 11:49:52;;;;;;;0.43;0.43;;;25.20;51.60;;;;;;5046164;28;20053;-62
2022/06/07 11:52:22;;;;;;;0.45;0.45;;;25.10;51.60;;;;;;5054251;28;20111;-61
2022/06/07 11:54:56;;;;;;;0.50;0.50;;;25.20;51.70;;;;;;5049463;28;20044;-61
2022/06/07 11:57:30;;;;;;;0.75;0.60;;;25.20;51.60;;;;;;5056154;28;20025;-58
2022/06/07 12:00:16;;;;;;;0.73;0.60;;;25.20;51.70;;;;;;5056140;28;20036;-59
2022/06/07 12:03:08;;;;;;;0.63;0.60;;;25.20;51.70;;;;;;5056036;28;20774;-63
2022/06/07 12:05:47;;;;;;;0.68;0.50;;;25.20;51.70;;;;;;5058629;28;20572;-62
2022/06/07 12:08:28;;;;;;;0.52;0.50;;;25.30;51.60;;;;;;5057509;28;20093;-59
2022/06/07 12:11:21;;;;;;;0.50;0.50;;;25.30;51.60;;;;;;5053905;28;20052;-61
2022/06/07 12:13:58;;;;;;;0.40;0.40;;;25.30;51.50;;;;;;5056240;28;20496;-60
2022/06/07 12:16:37;;;;;;;0.40;0.40;;;25.40;51.50;;;;;;5051793;28;20021;-61
2022/06/07 12:19:25;;;;;;;1.20;0.77;;;25.40;51.40;;;;;;5055388;28;20056;-61
2022/06/07 12:22:13;;;;;;;0.43;0.30;;;25.40;51.00;;;;;;5051586;28;20029;-61
2022/06/07 12:25:16;;;;;;;0.47;0.47;;;25.40;50.30;;;;;;5051612;28;20070;-62
2022/06/07 12:27:51;;;;;;;1.00;0.60;;;25.40;49.30;;;;;;5039055;28;20052;-62
2022/06/07 12:30:34;;;;;;;0.65;0.50;;;25.40;49.10;;;;;;5052521;28;20032;-60
2022/06/07 12:33:34;;;;;;;0.80;0.60;;;25.40;48.80;;;;;;5051979;28;20021;-59
2022/06/07 12:36:01;;;;;;;0.50;0.50;;;25.30;48.60;;;;;;5051002;28;20036;-60
2022/06/07 12:38:30;;;;;;;0.50;0.50;;;25.40;48.50;;;;;;5048283;28;20020;-62
2022/06/07 12:41:12;;;;;;;1.02;0.60;;;25.40;48.50;;;;;;5054190;28;20032;-64
2022/06/07 12:43:47;;;;;;;0.60;0.60;;;25.40;48.40;;;;;;5050656;28;20110;-61
2022/06/07 12:46:41;;;;;;;0.90;0.50;;;25.40;48.50;;;;;;5051933;28;20093;-61
2022/06/07 12:49:19;;;;;;;0.85;0.70;;;25.40;48.40;;;;;;5055323;28;20088;-62
2022/06/07 12:52:00;;;;;;;0.52;0.50;;;25.40;48.10;;;;;;5052803;28;20035;-63
2022/06/07 12:54:28;;;;;;;0.77;0.57;;;25.40;47.80;;;;;;5052894;28;20566;-62
2022/06/07 12:56:56;;;;;;;0.70;0.60;;;25.40;47.80;;;;;;5054961;28;20029;-62
2022/06/07 12:59:28;;;;;;;0.50;0.50;;;25.30;47.80;;;;;;5052234;28;20041;-61
2022/06/07 13:01:53;;;;;;;0.90;0.60;;;25.30;47.90;;;;;;5053483;28;20514;-60
2022/06/07 13:04:36;;;;;;;0.88;0.60;;;25.30;48.00;;;;;;5053588;28;20032;-63
2022/06/07 13:07:19;;;;;;;0.77;0.60;;;25.30;47.90;;;;;;5050374;28;20024;-59
2022/06/07 13:09:50;;;;;;;0.95;0.52;;;25.30;47.40;;;;;;5053353;28;20037;-62
2022/06/07 13:12:25;;;;;;;1.35;0.70;;;25.30;47.20;;;;;;5053741;28;20021;-60
2022/06/07 13:14:52;;;;;;;0.50;0.50;;;25.30;47.10;;;;;;5053513;28;20531;-63
2022/06/07 13:17:34;;;;;;;0.60;0.50;;;25.30;47.20;;;;;;5053462;28;20436;-61
2022/06/07 13:20:01;;;;;;;0.65;0.55;;;25.30;47.80;;;;;;5054562;28;20094;-62
2022/06/07 13:22:36;;;;;;;0.98;0.60;;;25.30;47.20;;;;;;5051219;28;20128;-62
2022/06/07 13:25:31;;;;;;;0.68;0.60;;;25.30;47.20;;;;;;5055130;28;20036;-60
2022/06/07 13:28:06;;;;;;;0.68;0.50;;;25.30;47.30;;;;;;5053610;28;20044;-62
2022/06/07 13:30:32;;;;;;;0.73;0.52;;;25.30;47.50;;;;;;5053663;28;20120;-61
2022/06/07 13:33:07;;;;;;;0.90;0.60;;;25.30;47.60;;;;;;5052315;28;20166;-62
2022/06/07 13:36:00;;;;;;;0.80;0.55;;;25.30;47.60;;;;;;5051762;28;20047;-59